createdAt,value
2019-03-13T00:00:38.378Z,100169.00
2019-03-13T00:03:08.671Z,100162.00
2019-03-13T00:05:38.391Z,100162.00
2019-03-13T00:08:07.961Z,100164.00
2019-03-13T00:10:37.656Z,100162.00
2019-03-13T00:13:07.261Z,100164.00
2019-03-13T00:15:36.886Z,100154.00
2019-03-13T00:18:06.666Z,100138.00
2019-03-13T00:20:36.287Z,100153.00
2019-03-13T00:23:05.908Z,100147.00
2019-03-13T00:25:35.487Z,100145.00
2019-03-13T00:28:05.033Z,100147.00
2019-03-13T00:30:36.116Z,100142.00
2019-03-13T00:33:05.634Z,100136.00
2019-03-13T00:35:35.067Z,100135.00
2019-03-13T00:38:04.627Z,100139.00
2019-03-13T00:40:34.224Z,100148.00
2019-03-13T00:43:03.773Z,100148.00
2019-03-13T00:45:33.307Z,100139.00
2019-03-13T00:48:02.790Z,100143.00
2019-03-13T00:50:33.464Z,100131.00
2019-03-13T00:53:02.991Z,100136.00
2019-03-13T00:55:32.443Z,100139.00
2019-03-13T00:58:01.955Z,100126.00
2019-03-13T01:00:38.718Z,100144.00
2019-03-13T01:03:09.922Z,100144.00
2019-03-13T01:05:40.995Z,100144.00
2019-03-13T01:08:10.498Z,100142.00
2019-03-13T01:10:40.080Z,100141.00
2019-03-13T01:13:09.595Z,100139.00
2019-03-13T01:15:39.154Z,100150.00
2019-03-13T01:18:08.593Z,100142.00
2019-03-13T01:20:38.030Z,100130.00
2019-03-13T01:23:07.565Z,100128.00
2019-03-13T01:25:37.101Z,100122.00
2019-03-13T01:28:06.548Z,100125.00
2019-03-13T01:30:53.061Z,100133.00
2019-03-13T01:33:22.524Z,100127.00
2019-03-13T01:35:53.588Z,100128.00
2019-03-13T01:38:23.024Z,100116.00
2019-03-13T01:40:52.451Z,100110.00
2019-03-13T01:43:21.961Z,100117.00
2019-03-13T01:45:51.419Z,100131.00
2019-03-13T01:48:23.401Z,100125.00
2019-03-13T01:50:53.053Z,100118.00
2019-03-13T01:53:22.522Z,100124.00
2019-03-13T01:55:52.107Z,100112.00
2019-03-13T01:58:21.553Z,100113.00
2019-03-13T02:00:51.027Z,100116.00
2019-03-13T02:03:20.447Z,100126.00
2019-03-13T02:05:49.954Z,100116.00
2019-03-13T02:08:19.439Z,100112.00
2019-03-13T02:10:48.912Z,100116.00
2019-03-13T02:13:18.350Z,100115.00
2019-03-13T02:15:48.035Z,100125.00
2019-03-13T02:18:19.016Z,100118.00
2019-03-13T02:20:50.182Z,100115.00
2019-03-13T02:23:19.689Z,100118.00
2019-03-13T02:25:49.139Z,100103.00
2019-03-13T02:28:18.630Z,100117.00
2019-03-13T02:30:48.084Z,100098.00
2019-03-13T02:33:17.614Z,100094.00
2019-03-13T02:35:47.086Z,100098.00
2019-03-13T02:38:16.536Z,100083.00
2019-03-13T02:40:45.975Z,100088.00
2019-03-13T02:43:15.527Z,100085.00
2019-03-13T02:45:44.951Z,100098.00
2019-03-13T02:48:14.438Z,100088.00
2019-03-13T02:50:44.042Z,100090.00
2019-03-13T02:53:13.476Z,100082.00
2019-03-13T02:55:44.054Z,100085.00
2019-03-13T02:58:13.447Z,100073.00
2019-03-13T03:00:50.575Z,100076.00
2019-03-13T03:03:21.866Z,100083.00
2019-03-13T03:05:51.358Z,100070.00
2019-03-13T03:08:20.803Z,100082.00
2019-03-13T03:10:50.366Z,100076.00
2019-03-13T03:13:19.830Z,100080.00
2019-03-13T03:15:49.306Z,100080.00
2019-03-13T03:18:18.958Z,100080.00
2019-03-13T03:20:48.413Z,100076.00
2019-03-13T03:23:17.876Z,100073.00
2019-03-13T03:25:47.242Z,100073.00
2019-03-13T03:28:16.763Z,100084.00
2019-03-13T03:30:46.203Z,100073.00
2019-03-13T03:33:15.748Z,100082.00
2019-03-13T03:35:45.184Z,100070.00
2019-03-13T03:38:14.659Z,100075.00
2019-03-13T03:40:46.960Z,100075.00
2019-03-13T03:43:16.430Z,100063.00
2019-03-13T03:45:45.878Z,100080.00
2019-03-13T03:48:15.360Z,100067.00
2019-03-13T03:50:44.841Z,100075.00
2019-03-13T03:53:14.356Z,100074.00
2019-03-13T03:55:44.010Z,100068.00
2019-03-13T03:58:13.531Z,100084.00
2019-03-13T04:00:43.064Z,100073.00
2019-03-13T04:03:12.625Z,100083.00
2019-03-13T04:05:42.309Z,100061.00
2019-03-13T04:08:11.756Z,100067.00
2019-03-13T04:10:41.307Z,100084.00
2019-03-13T04:13:10.748Z,100063.00
2019-03-13T04:15:40.319Z,100065.00
2019-03-13T04:18:09.821Z,100054.00
2019-03-13T04:20:39.252Z,100076.00
2019-03-13T04:23:08.725Z,100084.00
2019-03-13T04:25:38.336Z,100085.00
2019-03-13T04:28:08.102Z,100077.00
2019-03-13T04:30:37.578Z,100080.00
2019-03-13T04:33:07.101Z,100065.00
2019-03-13T04:35:38.422Z,100067.00
2019-03-13T04:38:07.885Z,100064.00
2019-03-13T04:40:37.309Z,100081.00
2019-03-13T04:43:06.875Z,100070.00
2019-03-13T04:45:36.431Z,100059.00
2019-03-13T04:48:06.051Z,100063.00
2019-03-13T04:50:35.555Z,100053.00
2019-03-13T04:53:05.006Z,100058.00
2019-03-13T04:55:34.547Z,100041.00
2019-03-13T04:58:03.992Z,100045.00
2019-03-13T05:00:33.487Z,100046.00
2019-03-13T05:03:03.045Z,100033.00
2019-03-13T05:05:44.650Z,100043.00
2019-03-13T05:08:27.532Z,100045.00
2019-03-13T05:10:56.988Z,100053.00
2019-03-13T05:13:26.401Z,100046.00
2019-03-13T05:15:55.944Z,100037.00
2019-03-13T05:18:25.365Z,100041.00
2019-03-13T05:20:54.884Z,100022.00
2019-03-13T05:23:24.426Z,100039.00
2019-03-13T05:25:53.936Z,100038.00
2019-03-13T05:28:23.485Z,100048.00
2019-03-13T05:30:53.363Z,100029.00
2019-03-13T05:33:23.069Z,100042.00
2019-03-13T05:35:52.509Z,100035.00
2019-03-13T05:38:21.984Z,100024.00
2019-03-13T05:40:51.417Z,100017.00
2019-03-13T05:43:20.857Z,100030.00
2019-03-13T05:45:50.322Z,100035.00
2019-03-13T05:48:19.787Z,100037.00
2019-03-13T05:50:49.250Z,100019.00
2019-03-13T05:53:18.735Z,100035.00
2019-03-13T05:55:48.251Z,100036.00
2019-03-13T05:58:17.726Z,100013.00
2019-03-13T06:00:47.264Z,100034.00
2019-03-13T06:03:16.800Z,100034.00
2019-03-13T06:05:46.240Z,100052.00
2019-03-13T06:08:18.358Z,100045.00
2019-03-13T06:10:46.999Z,100055.00
2019-03-13T06:13:16.453Z,100048.00
2019-03-13T06:15:45.908Z,100052.00
2019-03-13T06:18:15.406Z,100051.00
2019-03-13T06:20:44.893Z,100070.00
2019-03-13T06:23:14.354Z,100057.00
2019-03-13T06:25:43.843Z,100054.00
2019-03-13T06:28:13.264Z,100044.00
2019-03-13T06:30:42.799Z,100055.00
2019-03-13T06:33:12.361Z,100046.00
2019-03-13T06:35:41.882Z,100057.00
2019-03-13T06:38:11.322Z,100048.00
2019-03-13T06:40:40.802Z,100040.00
2019-03-13T06:43:10.252Z,100048.00
2019-03-13T06:45:39.702Z,100044.00
2019-03-13T06:48:09.224Z,100048.00
2019-03-13T06:50:38.769Z,100053.00
2019-03-13T06:53:08.236Z,100045.00
2019-03-13T06:55:37.735Z,100046.00
2019-03-13T06:58:07.200Z,100067.00
2019-03-13T07:00:54.625Z,100049.00
2019-03-13T07:03:31.636Z,100052.00
2019-03-13T07:06:02.863Z,100076.00
2019-03-13T07:08:42.930Z,100063.00
2019-03-13T07:11:23.278Z,100062.00
2019-03-13T07:13:57.169Z,100053.00
2019-03-13T07:16:39.799Z,100048.00
2019-03-13T07:19:10.909Z,100060.00
2019-03-13T07:21:42.002Z,100047.00
2019-03-13T07:24:16.103Z,100041.00
2019-03-13T07:26:47.178Z,100054.00
2019-03-13T07:29:24.114Z,100047.00
2019-03-13T07:31:58.006Z,100045.00
2019-03-13T07:34:32.108Z,100042.00
2019-03-13T07:37:15.385Z,100041.00
2019-03-13T07:39:46.517Z,100048.00
2019-03-13T07:42:33.979Z,100046.00
2019-03-13T07:45:08.931Z,100035.00
2019-03-13T07:47:51.652Z,100039.00
2019-03-13T07:50:28.424Z,100033.00
2019-03-13T07:53:15.480Z,100027.00
2019-03-13T07:55:49.415Z,100028.00
2019-03-13T07:58:20.575Z,100022.00
2019-03-13T08:00:54.250Z,100024.00
2019-03-13T08:03:28.067Z,100022.00
2019-03-13T08:06:15.137Z,100031.00
2019-03-13T08:09:02.534Z,100037.00
2019-03-13T08:11:48.475Z,100018.00
2019-03-13T08:14:32.925Z,100028.00
2019-03-13T08:17:09.875Z,100007.00
2019-03-13T08:19:47.146Z,100016.00
2019-03-13T08:22:27.047Z,99999.00
2019-03-13T08:25:00.595Z,100012.00
2019-03-13T08:27:31.790Z,100017.00
2019-03-13T08:30:11.978Z,100007.00
2019-03-13T08:32:43.083Z,100017.00
2019-03-13T08:35:26.162Z,100016.00
2019-03-13T08:37:59.825Z,100010.00
2019-03-13T08:40:30.893Z,100006.00
2019-03-13T08:43:11.151Z,100030.00
2019-03-13T08:45:48.063Z,100012.00
2019-03-13T08:48:28.148Z,100013.00
2019-03-13T08:51:15.444Z,100008.00
2019-03-13T08:53:46.518Z,100012.00
2019-03-13T08:56:20.526Z,100011.00
2019-03-13T08:58:54.445Z,100014.00
2019-03-13T09:01:28.328Z,100004.00
2019-03-13T09:04:05.316Z,100021.00
2019-03-13T09:06:36.413Z,100001.00
2019-03-13T09:09:18.069Z,100003.00
2019-03-13T09:11:58.204Z,100013.00
2019-03-13T09:14:30.992Z,100017.00
2019-03-13T09:17:07.673Z,100017.00
2019-03-13T09:19:38.746Z,100019.00
2019-03-13T09:22:09.838Z,100018.00
2019-03-13T09:24:56.061Z,100011.00
2019-03-13T09:27:45.325Z,100010.00
2019-03-13T09:30:16.616Z,100021.00
2019-03-13T09:32:50.587Z,100018.00
2019-03-13T09:35:21.734Z,100021.00
2019-03-13T09:38:01.471Z,100011.00
2019-03-13T09:40:48.939Z,100021.00
2019-03-13T09:43:22.644Z,100014.00
2019-03-13T09:45:53.721Z,100023.00
2019-03-13T09:48:27.570Z,100020.00
2019-03-13T09:51:01.248Z,100023.00
2019-03-13T09:53:32.392Z,100025.00
2019-03-13T09:56:06.110Z,100005.00
2019-03-13T09:58:46.223Z,100003.00
2019-03-13T10:01:25.962Z,100000.00
2019-03-13T10:04:02.881Z,99991.00
2019-03-13T10:06:34.080Z,99999.00
2019-03-13T10:09:17.276Z,100008.00
2019-03-13T10:11:57.627Z,99998.00
2019-03-13T10:14:31.578Z,100001.00
2019-03-13T10:17:10.676Z,99989.00
2019-03-13T10:19:38.052Z,100002.00
2019-03-13T10:22:09.209Z,99981.00
2019-03-13T10:24:56.806Z,99983.00
2019-03-13T10:27:27.930Z,99994.00
2019-03-13T10:29:58.997Z,99976.00
2019-03-13T10:32:46.385Z,99968.00
2019-03-13T10:35:35.865Z,99933.00
2019-03-13T10:38:23.085Z,99948.00
2019-03-13T10:40:54.319Z,99935.00
2019-03-13T10:43:25.414Z,99950.00
2019-03-13T10:46:08.796Z,99934.00
2019-03-13T10:48:39.909Z,99940.00
2019-03-13T10:51:10.952Z,99944.00
2019-03-13T10:53:44.912Z,99937.00
2019-03-13T10:56:21.690Z,99942.00
2019-03-13T10:58:55.592Z,99953.00
2019-03-13T11:01:29.584Z,99931.00
2019-03-13T11:04:00.694Z,99950.00
2019-03-13T11:06:31.848Z,99918.00
2019-03-13T11:09:02.968Z,99928.00
2019-03-13T11:11:42.928Z,99926.00
2019-03-13T11:14:28.985Z,99940.00
2019-03-13T11:17:05.826Z,99945.00
2019-03-13T11:19:43.959Z,99938.00
2019-03-13T11:22:23.890Z,99941.00
2019-03-13T11:25:00.920Z,99930.00
2019-03-13T11:27:34.772Z,99953.00
2019-03-13T11:30:08.385Z,99938.00
2019-03-13T11:32:42.243Z,99945.00
2019-03-13T11:35:13.620Z,99951.00
2019-03-13T11:37:56.652Z,99934.00
2019-03-13T11:43:45.019Z,99960.00
2019-03-13T11:46:16.235Z,99938.00
2019-03-13T11:48:47.308Z,99951.00
2019-03-13T11:51:33.348Z,99940.00
2019-03-13T11:54:07.247Z,99940.00
2019-03-13T11:56:50.515Z,99950.00
2019-03-13T11:59:30.498Z,99949.00
2019-03-13T12:02:04.498Z,99953.00
2019-03-13T12:04:35.655Z,99937.00
2019-03-13T12:07:22.989Z,99952.00
2019-03-13T12:09:59.680Z,99950.00
2019-03-13T12:12:46.947Z,99942.00
2019-03-13T12:15:23.690Z,99961.00
2019-03-13T12:18:11.074Z,99956.00
2019-03-13T12:20:42.240Z,99961.00
2019-03-13T12:23:16.119Z,99968.00
2019-03-13T12:25:49.826Z,99964.00
2019-03-13T12:28:37.151Z,99958.00
2019-03-13T12:31:20.702Z,99960.00
2019-03-13T12:33:57.265Z,99952.00
2019-03-13T12:36:30.970Z,99955.00
2019-03-13T12:39:10.896Z,99948.00
2019-03-13T12:41:56.924Z,99938.00
2019-03-13T12:44:27.994Z,99931.00
2019-03-13T12:47:02.068Z,99932.00
2019-03-13T12:49:49.220Z,99942.00
2019-03-13T12:52:26.017Z,99938.00
2019-03-13T12:55:02.192Z,99937.00
2019-03-13T12:57:44.657Z,99919.00
2019-03-13T13:00:25.043Z,99929.00
2019-03-13T13:02:56.148Z,99916.00
2019-03-13T13:05:42.144Z,99919.00
2019-03-13T13:08:25.092Z,99906.00
2019-03-13T13:11:12.758Z,99912.00
2019-03-13T13:13:59.980Z,99921.00
2019-03-13T13:16:39.794Z,99926.00
2019-03-13T13:19:09.282Z,99945.00
2019-03-13T13:21:38.825Z,99933.00
2019-03-13T13:24:08.339Z,99934.00
2019-03-13T13:26:37.823Z,99907.00
2019-03-13T13:29:07.402Z,99922.00
2019-03-13T13:31:36.862Z,99924.00
2019-03-13T13:34:06.280Z,99919.00
2019-03-13T13:36:35.730Z,99925.00
2019-03-13T13:39:07.829Z,99910.00
2019-03-13T13:41:37.375Z,99908.00
2019-03-13T13:44:06.913Z,99899.00
2019-03-13T13:46:36.610Z,99906.00
2019-03-13T13:49:06.021Z,99924.00
2019-03-13T13:51:35.660Z,99921.00
2019-03-13T13:54:05.851Z,99925.00
2019-03-13T13:56:35.284Z,99931.00
2019-03-13T13:59:04.925Z,99931.00
2019-03-13T14:01:34.361Z,99955.00
2019-03-13T14:04:03.852Z,99959.00
2019-03-13T14:06:33.331Z,99950.00
2019-03-13T14:09:02.805Z,99966.00
2019-03-13T14:11:32.214Z,99971.00
2019-03-13T14:14:01.739Z,99976.00
2019-03-13T14:16:31.238Z,99958.00
2019-03-13T14:19:00.756Z,99961.00
2019-03-13T14:21:30.261Z,99954.00
2019-03-13T14:23:59.711Z,99949.00
2019-03-13T14:26:29.229Z,99967.00
2019-03-13T14:28:58.700Z,99966.00
2019-03-13T14:31:28.125Z,99969.00
2019-03-13T14:33:57.597Z,99964.00
2019-03-13T14:36:27.062Z,99946.00
2019-03-13T14:38:56.479Z,99945.00
2019-03-13T14:41:26.704Z,99953.00
2019-03-13T14:43:56.257Z,99963.00
2019-03-13T14:46:25.698Z,99963.00
2019-03-13T14:48:55.259Z,99963.00
2019-03-13T14:51:24.701Z,99968.00
2019-03-13T14:53:54.171Z,99959.00
2019-03-13T14:56:23.672Z,99928.00
2019-03-13T14:58:53.189Z,99929.00
2019-03-13T15:01:22.814Z,99945.00
2019-03-13T15:03:52.432Z,99975.00
2019-03-13T15:06:21.876Z,100026.00
2019-03-13T15:08:51.328Z,100043.00
2019-03-13T15:11:20.798Z,100020.00
2019-03-13T15:13:50.429Z,100015.00
2019-03-13T15:16:19.878Z,100022.00
2019-03-13T15:18:49.403Z,100019.00
2019-03-13T15:21:18.935Z,100002.00
2019-03-13T15:23:48.401Z,99995.00
2019-03-13T15:26:17.926Z,100025.00
2019-03-13T15:28:47.541Z,100030.00
2019-03-13T15:31:17.021Z,100032.00
2019-03-13T15:33:46.534Z,100046.00
2019-03-13T15:36:16.010Z,100054.00
2019-03-13T15:38:45.534Z,100011.00
2019-03-13T15:41:15.064Z,100017.00
2019-03-13T15:43:44.594Z,100007.00
2019-03-13T15:46:14.236Z,100007.00
2019-03-13T15:48:43.714Z,100008.00
2019-03-13T15:51:13.395Z,100002.00
2019-03-13T15:53:44.504Z,100007.00
2019-03-13T15:56:13.953Z,100010.00
2019-03-13T15:58:43.582Z,100003.00
2019-03-13T16:01:13.147Z,100013.00
2019-03-13T16:03:42.750Z,100009.00
2019-03-13T16:06:12.297Z,100018.00
2019-03-13T16:08:41.771Z,100020.00
2019-03-13T16:11:11.416Z,100029.00
2019-03-13T16:13:40.834Z,100011.00
2019-03-13T16:16:11.835Z,100023.00
2019-03-13T16:18:41.322Z,100027.00
2019-03-13T16:21:10.807Z,100035.00
2019-03-13T16:23:40.392Z,100037.00
2019-03-13T16:26:09.949Z,100041.00
2019-03-13T16:28:39.428Z,100051.00
2019-03-13T16:31:09.945Z,100061.00
2019-03-13T16:33:39.418Z,100057.00
2019-03-13T16:36:08.876Z,100064.00
2019-03-13T16:38:38.520Z,100065.00
2019-03-13T16:41:08.027Z,100057.00
2019-03-13T16:43:37.708Z,100061.00
2019-03-13T16:46:07.253Z,100057.00
2019-03-13T16:48:36.939Z,100062.00
2019-03-13T16:53:35.274Z,100094.00
2019-03-13T16:56:05.035Z,100105.00
2019-03-13T16:58:34.861Z,100092.00
2019-03-13T17:01:04.666Z,100093.00
2019-03-13T17:03:34.472Z,100104.00
2019-03-13T17:06:04.250Z,100111.00
2019-03-13T17:08:33.933Z,100109.00
2019-03-13T17:11:03.550Z,100117.00
2019-03-13T17:13:33.016Z,100097.00
2019-03-13T17:16:02.553Z,100101.00
2019-03-13T17:18:32.467Z,100093.00
2019-03-13T17:21:02.030Z,100105.00
2019-03-13T17:23:31.493Z,100120.00
2019-03-13T17:26:01.029Z,100140.00
2019-03-13T17:28:30.978Z,100140.00
2019-03-13T17:31:00.798Z,100143.00
2019-03-13T17:33:30.121Z,100134.00
2019-03-13T17:35:59.870Z,100132.00
2019-03-13T17:38:29.279Z,100123.00
2019-03-13T17:40:59.043Z,100121.00
2019-03-13T17:43:38.458Z,100137.00
2019-03-13T17:45:59.763Z,100125.00
2019-03-13T17:48:29.563Z,100141.00
2019-03-13T17:50:59.025Z,100144.00
2019-03-13T17:53:28.609Z,100148.00
2019-03-13T17:55:58.089Z,100150.00
2019-03-13T17:58:27.638Z,100166.00
2019-03-13T18:00:57.537Z,100174.00
2019-03-13T18:03:27.099Z,100181.00
2019-03-13T18:05:56.533Z,100190.00
2019-03-13T18:08:26.029Z,100197.00
2019-03-13T18:10:55.511Z,100203.00
2019-03-13T18:13:24.956Z,100209.00
2019-03-13T18:15:54.424Z,100228.00
2019-03-13T18:18:23.889Z,100226.00
2019-03-13T18:20:53.361Z,100232.00
2019-03-13T18:23:22.831Z,100235.00
2019-03-13T18:25:52.329Z,100234.00
2019-03-13T18:28:21.866Z,100238.00
2019-03-13T18:30:51.403Z,100251.00
2019-03-13T18:33:20.846Z,100262.00
2019-03-13T18:35:50.351Z,100262.00
2019-03-13T18:38:19.821Z,100267.00
2019-03-13T18:40:49.260Z,100263.00
2019-03-13T18:43:18.730Z,100275.00
2019-03-13T18:45:48.326Z,100272.00
2019-03-13T18:48:17.885Z,100270.00
2019-03-13T18:50:47.514Z,100282.00
2019-03-13T18:53:16.954Z,100293.00
2019-03-13T18:55:46.303Z,100296.00
2019-03-13T18:58:15.752Z,100301.00
2019-03-13T19:00:45.254Z,100304.00
2019-03-13T19:03:14.829Z,100319.00
2019-03-13T19:05:44.392Z,100317.00
2019-03-13T19:08:14.058Z,100332.00
2019-03-13T19:10:43.574Z,100325.00
2019-03-13T19:13:13.020Z,100338.00
2019-03-13T19:15:42.550Z,100345.00
2019-03-13T19:18:12.052Z,100352.00
2019-03-13T19:20:41.552Z,100344.00
2019-03-13T19:23:14.054Z,100349.00
2019-03-13T19:25:42.243Z,100352.00
2019-03-13T19:28:11.680Z,100347.00
2019-03-13T19:30:41.143Z,100360.00
2019-03-13T19:33:10.738Z,100367.00
2019-03-13T19:35:40.213Z,100372.00
2019-03-13T19:38:12.849Z,100370.00
2019-03-13T19:40:42.390Z,100376.00
2019-03-13T19:43:12.084Z,100373.00
2019-03-13T19:45:47.683Z,100386.00
2019-03-13T19:48:17.275Z,100386.00
2019-03-13T19:50:46.771Z,100388.00
2019-03-13T19:53:16.284Z,100391.00
2019-03-13T19:55:45.712Z,100404.00
2019-03-13T19:58:15.067Z,100403.00
2019-03-13T20:00:44.560Z,100413.00
2019-03-13T20:03:18.866Z,100412.00
2019-03-13T20:05:48.303Z,100409.00
2019-03-13T20:08:17.806Z,100412.00
2019-03-13T20:10:47.315Z,100418.00
2019-03-13T20:13:16.756Z,100417.00
2019-03-13T20:15:46.417Z,100426.00
2019-03-13T20:18:15.933Z,100431.00
2019-03-13T20:20:45.505Z,100433.00
2019-03-13T20:23:19.644Z,100443.00
2019-03-13T20:25:49.071Z,100448.00
2019-03-13T20:28:18.491Z,100451.00
2019-03-13T20:30:48.075Z,100444.00
2019-03-13T20:33:17.588Z,100449.00
2019-03-13T20:35:47.105Z,100448.00
2019-03-13T20:38:16.619Z,100450.00
2019-03-13T20:40:46.063Z,100450.00
2019-03-13T20:43:15.723Z,100457.00
2019-03-13T20:45:45.470Z,100464.00
2019-03-13T20:48:15.161Z,100467.00
2019-03-13T20:50:44.775Z,100474.00
2019-03-13T20:53:14.499Z,100478.00
2019-03-13T20:55:44.107Z,100469.00
2019-03-13T20:58:13.795Z,100479.00
2019-03-13T21:00:43.410Z,100483.00
2019-03-13T21:03:13.123Z,100483.00
2019-03-13T21:05:42.890Z,100491.00
2019-03-13T21:08:12.495Z,100493.00
2019-03-13T21:10:42.102Z,100497.00
2019-03-13T21:13:11.921Z,100492.00
2019-03-13T21:15:43.762Z,100500.00
2019-03-13T21:18:12.638Z,100511.00
2019-03-13T21:20:42.454Z,100519.00
2019-03-13T21:23:12.272Z,100530.00
2019-03-13T21:25:42.021Z,100528.00
2019-03-13T21:28:11.650Z,100532.00
2019-03-13T21:30:41.256Z,100519.00
2019-03-13T21:33:11.018Z,100519.00
2019-03-13T21:35:40.710Z,100525.00
2019-03-13T21:38:12.973Z,100525.00
2019-03-13T21:40:41.407Z,100531.00
2019-03-13T21:43:10.856Z,100538.00
2019-03-13T21:45:41.671Z,100545.00
2019-03-13T21:48:11.207Z,100535.00
2019-03-13T21:50:40.658Z,100553.00
2019-03-13T21:53:10.106Z,100550.00
2019-03-13T21:55:39.621Z,100546.00
2019-03-13T21:58:09.133Z,100544.00
2019-03-13T22:00:38.684Z,100546.00
2019-03-13T22:03:08.170Z,100559.00
2019-03-13T22:05:37.619Z,100565.00
2019-03-13T22:08:07.102Z,100563.00
2019-03-13T22:10:36.879Z,100575.00
2019-03-13T22:13:06.484Z,100574.00
2019-03-13T22:15:35.916Z,100563.00
2019-03-13T22:18:05.405Z,100565.00
2019-03-13T22:20:35.710Z,100555.00
2019-03-13T22:23:05.189Z,100567.00
2019-03-13T22:25:34.631Z,100561.00
2019-03-13T22:28:04.115Z,100558.00
2019-03-13T22:30:33.587Z,100560.00
2019-03-13T22:33:03.098Z,100565.00
2019-03-13T22:35:32.607Z,100586.00
2019-03-13T22:38:02.115Z,100581.00
2019-03-13T22:40:31.572Z,100575.00
2019-03-13T22:43:01.143Z,100572.00
2019-03-13T22:45:30.610Z,100580.00
2019-03-13T22:48:00.066Z,100582.00
2019-03-13T22:50:31.015Z,100589.00
2019-03-13T22:53:00.512Z,100591.00
2019-03-13T22:55:30.002Z,100602.00
2019-03-13T22:58:01.538Z,100604.00
2019-03-13T23:01:01.943Z,100607.00
2019-03-13T23:03:31.675Z,100609.00
2019-03-13T23:06:01.431Z,100612.00
2019-03-13T23:08:31.340Z,100615.00
2019-03-13T23:11:01.034Z,100613.00
2019-03-13T23:13:30.440Z,100618.00
2019-03-13T23:16:00.009Z,100622.00
2019-03-13T23:18:29.598Z,100623.00
2019-03-13T23:20:59.184Z,100617.00
2019-03-13T23:23:28.623Z,100629.00
2019-03-13T23:25:58.088Z,100627.00
2019-03-13T23:28:27.512Z,100628.00
2019-03-13T23:30:57.016Z,100633.00
2019-03-13T23:33:26.681Z,100632.00
2019-03-13T23:35:56.138Z,100641.00
2019-03-13T23:38:25.601Z,100636.00
2019-03-13T23:40:55.071Z,100642.00
2019-03-13T23:43:24.507Z,100632.00
2019-03-13T23:45:54.037Z,100644.00
2019-03-13T23:48:23.524Z,100646.00
2019-03-13T23:50:52.968Z,100646.00
2019-03-13T23:53:22.438Z,100639.00
2019-03-13T23:55:51.903Z,100639.00
2019-03-13T23:58:21.439Z,100647.00
